createdAt,value
2023-08-02T00:01:09.401Z,6.00
2023-08-02T00:03:36.270Z,5.80
2023-08-02T00:06:03.435Z,5.22
2023-08-02T00:08:30.800Z,4.85
2023-08-02T00:10:57.944Z,4.90
2023-08-02T00:13:25.136Z,4.82
2023-08-02T00:15:53.649Z,5.07
2023-08-02T00:18:20.641Z,5.32
2023-08-02T00:20:48.403Z,4.70
2023-08-02T00:23:15.604Z,5.15
2023-08-02T00:25:42.409Z,4.97
2023-08-02T00:28:09.239Z,5.15
2023-08-02T00:30:45.045Z,5.38
2023-08-02T00:33:11.917Z,5.50
2023-08-02T00:35:44.489Z,5.28
2023-08-02T00:38:11.456Z,5.45
2023-08-02T00:40:38.578Z,4.90
2023-08-02T00:43:05.411Z,5.22
2023-08-02T00:45:32.284Z,5.50
2023-08-02T00:47:59.595Z,5.32
2023-08-02T00:50:28.949Z,5.65
2023-08-02T00:52:56.600Z,5.57
2023-08-02T00:55:23.674Z,5.18
2023-08-02T00:57:51.006Z,6.10
2023-08-02T01:00:17.932Z,5.80
2023-08-02T01:02:44.812Z,5.60
2023-08-02T01:05:14.031Z,5.93
2023-08-02T01:07:48.980Z,5.25
2023-08-02T01:10:30.452Z,5.70
2023-08-02T01:12:59.761Z,6.03
2023-08-02T01:15:28.062Z,6.15
2023-08-02T01:17:56.155Z,6.00
2023-08-02T01:20:23.124Z,5.65
2023-08-02T01:22:49.986Z,5.35
2023-08-02T01:25:16.873Z,5.32
2023-08-02T01:27:54.653Z,4.40
2023-08-02T01:30:25.822Z,5.05
2023-08-02T01:32:54.924Z,5.43
2023-08-02T01:35:22.086Z,5.10
2023-08-02T01:37:49.562Z,5.43
2023-08-02T01:40:17.303Z,4.88
2023-08-02T01:42:44.077Z,5.60
2023-08-02T01:45:11.664Z,5.05
2023-08-02T01:47:38.584Z,5.03
2023-08-02T01:50:05.786Z,5.03
2023-08-02T01:52:32.554Z,5.30
2023-08-02T01:54:59.398Z,4.95
2023-08-02T01:57:26.167Z,5.40
2023-08-02T01:59:52.928Z,5.03
2023-08-02T02:02:19.706Z,5.13
2023-08-02T02:04:46.630Z,5.43
2023-08-02T02:07:13.426Z,5.45
2023-08-02T02:09:40.209Z,5.00
2023-08-02T02:12:07.473Z,5.63
2023-08-02T02:14:34.251Z,5.72
2023-08-02T02:17:01.170Z,5.93
2023-08-02T02:19:27.911Z,5.90
2023-08-02T02:21:54.718Z,6.78
2023-08-02T02:24:21.541Z,5.88
2023-08-02T02:26:48.371Z,5.70
2023-08-02T02:29:15.100Z,6.10
2023-08-02T02:31:41.882Z,6.05
2023-08-02T02:34:08.620Z,6.65
2023-08-02T02:36:35.361Z,6.05
2023-08-02T02:39:02.074Z,5.97
2023-08-02T02:41:31.731Z,5.82
2023-08-02T02:43:58.430Z,5.72
2023-08-02T02:46:25.166Z,5.93
2023-08-02T02:48:51.891Z,6.10
2023-08-02T02:51:18.618Z,5.80
2023-08-02T02:53:45.439Z,6.10
2023-08-02T02:56:12.486Z,5.82
2023-08-02T02:58:39.250Z,5.80
2023-08-02T03:01:06.009Z,6.28
2023-08-02T03:03:32.738Z,5.53
2023-08-02T03:06:00.224Z,6.75
2023-08-02T03:08:27.088Z,5.60
2023-08-02T03:10:53.877Z,6.15
2023-08-02T03:13:20.668Z,6.03
2023-08-02T03:15:48.731Z,6.28
2023-08-02T03:18:15.515Z,6.32
2023-08-02T03:20:43.378Z,6.22
2023-08-02T03:23:10.357Z,5.88
2023-08-02T03:25:37.205Z,6.95
2023-08-02T03:28:04.120Z,6.05
2023-08-02T03:30:30.895Z,6.22
2023-08-02T03:32:57.696Z,6.95
2023-08-02T03:35:24.508Z,6.53
2023-08-02T03:37:51.290Z,7.38
2023-08-02T03:40:18.537Z,6.38
2023-08-02T03:42:45.257Z,6.18
2023-08-02T03:45:12.120Z,6.57
2023-08-02T03:47:38.999Z,7.40
2023-08-02T03:50:06.141Z,7.90
2023-08-02T03:52:32.949Z,6.90
2023-08-02T03:54:59.767Z,7.72
2023-08-02T03:57:26.819Z,8.00
2023-08-02T03:59:53.605Z,7.13
2023-08-02T04:02:20.444Z,7.45
2023-08-02T04:04:47.245Z,7.45
2023-08-02T04:07:14.123Z,7.00
2023-08-02T04:09:40.902Z,7.47
2023-08-02T04:12:08.250Z,7.03
2023-08-02T04:14:34.984Z,6.78
2023-08-02T04:17:01.862Z,6.60
2023-08-02T04:19:29.057Z,6.20
2023-08-02T04:21:55.767Z,6.30
2023-08-02T04:24:22.620Z,6.50
2023-08-02T04:26:49.384Z,6.97
2023-08-02T04:29:16.150Z,6.82
2023-08-02T04:31:42.973Z,6.43
2023-08-02T04:34:09.832Z,7.15
2023-08-02T04:36:36.609Z,8.60
2023-08-02T04:39:05.009Z,9.48
2023-08-02T04:41:31.796Z,10.90
2023-08-02T04:43:58.656Z,10.38
2023-08-02T04:46:28.329Z,11.98
2023-08-02T04:48:55.176Z,11.68
2023-08-02T04:51:22.083Z,10.32
2023-08-02T04:53:49.253Z,10.60
2023-08-02T04:56:17.039Z,10.30
2023-08-02T04:58:43.844Z,9.68
2023-08-02T05:01:10.846Z,9.10
2023-08-02T05:03:37.690Z,9.32
2023-08-02T05:06:06.776Z,8.35
2023-08-02T05:08:36.199Z,9.05
2023-08-02T05:11:06.745Z,8.10
2023-08-02T05:13:33.974Z,7.93
2023-08-02T05:16:00.996Z,8.10
2023-08-02T05:18:27.881Z,8.10
2023-08-02T05:20:55.019Z,7.38
2023-08-02T05:23:21.810Z,7.65
2023-08-02T05:25:48.607Z,7.57
2023-08-02T05:28:15.428Z,7.65
2023-08-02T05:30:42.312Z,7.10
2023-08-02T05:33:09.162Z,6.95
2023-08-02T05:35:35.927Z,6.93
2023-08-02T05:38:03.198Z,7.13
2023-08-02T05:40:30.064Z,7.32
2023-08-02T05:42:57.847Z,6.97
2023-08-02T05:45:25.214Z,5.97
2023-08-02T05:47:52.378Z,6.72
2023-08-02T05:50:19.568Z,6.10
2023-08-02T05:52:46.358Z,5.43
2023-08-02T05:55:13.635Z,5.45
2023-08-02T05:57:40.695Z,5.70
2023-08-02T06:00:08.725Z,5.53
2023-08-02T06:02:35.903Z,5.93
2023-08-02T06:05:03.442Z,6.35
2023-08-02T06:07:30.241Z,5.68
2023-08-02T06:09:57.036Z,5.30
2023-08-02T06:12:23.789Z,4.28
2023-08-02T06:14:50.584Z,4.55
2023-08-02T06:17:17.407Z,4.15
2023-08-02T06:19:44.172Z,3.97
2023-08-02T06:22:11.784Z,4.20
2023-08-02T06:24:38.832Z,4.38
2023-08-02T06:27:05.955Z,4.28
2023-08-02T06:29:32.950Z,4.28
2023-08-02T06:31:59.689Z,4.22
2023-08-02T06:34:26.420Z,3.42
2023-08-02T06:36:53.194Z,3.50
2023-08-02T06:39:20.049Z,3.75
2023-08-02T06:41:46.893Z,3.38
2023-08-02T06:44:14.674Z,3.25
2023-08-02T06:46:42.009Z,3.00
2023-08-02T06:49:08.950Z,2.70
2023-08-02T06:51:35.824Z,2.90
2023-08-02T06:54:02.676Z,2.60
2023-08-02T06:56:29.496Z,2.30
2023-08-02T06:58:56.349Z,2.35
2023-08-02T07:01:25.791Z,2.03
2023-08-02T07:03:52.692Z,2.25
2023-08-02T07:06:21.173Z,2.08
2023-08-02T07:08:49.125Z,1.70
2023-08-02T07:11:30.350Z,2.20
2023-08-02T07:14:02.860Z,1.90
2023-08-02T07:16:29.699Z,1.88
2023-08-02T07:18:56.615Z,2.00
2023-08-02T07:21:23.484Z,1.52
2023-08-02T07:23:50.214Z,1.65
2023-08-02T07:26:16.982Z,1.38
2023-08-02T07:28:43.727Z,1.40
2023-08-02T07:31:13.786Z,1.23
2023-08-02T07:33:41.017Z,1.20
2023-08-02T07:36:18.784Z,1.30
2023-08-02T07:38:46.875Z,1.10
2023-08-02T07:41:13.752Z,1.10
2023-08-02T07:43:40.677Z,1.20
2023-08-02T07:46:16.969Z,1.02
2023-08-02T07:48:43.978Z,1.10
2023-08-02T07:51:10.821Z,1.10
2023-08-02T07:53:38.039Z,1.35
2023-08-02T07:56:05.728Z,1.30
2023-08-02T07:58:32.521Z,1.38
2023-08-02T08:01:09.262Z,1.55
2023-08-02T08:03:37.067Z,1.60
2023-08-02T08:06:15.278Z,1.63
2023-08-02T08:08:43.542Z,1.85
2023-08-02T08:11:10.708Z,1.52
2023-08-02T08:13:37.681Z,1.77
2023-08-02T08:16:04.931Z,2.00
2023-08-02T08:18:32.670Z,2.22
2023-08-02T08:21:00.431Z,2.30
2023-08-02T08:23:27.665Z,2.25
2023-08-02T08:25:55.183Z,2.00
2023-08-02T08:28:22.010Z,2.08
2023-08-02T08:30:48.999Z,2.03
2023-08-02T08:33:15.847Z,2.08
2023-08-02T08:35:42.864Z,2.00
2023-08-02T08:38:09.638Z,2.10
2023-08-02T08:40:36.463Z,2.00
2023-08-02T08:43:03.358Z,2.70
2023-08-02T08:45:31.665Z,2.22
2023-08-02T08:47:58.681Z,2.75
2023-08-02T08:50:27.353Z,2.80
2023-08-02T08:52:59.305Z,2.63
2023-08-02T08:55:32.405Z,2.65
2023-08-02T08:58:10.201Z,2.70
2023-08-02T09:00:38.073Z,2.78
2023-08-02T09:03:05.129Z,2.60
2023-08-02T09:05:32.798Z,3.20
2023-08-02T09:07:59.832Z,2.90
2023-08-02T09:10:29.723Z,3.00
2023-08-02T09:12:56.455Z,2.75
2023-08-02T09:15:23.354Z,2.60
2023-08-02T09:17:52.473Z,2.67
2023-08-02T09:20:22.098Z,2.70
2023-08-02T09:22:49.309Z,2.70
2023-08-02T09:25:29.562Z,2.72
2023-08-02T09:27:59.691Z,2.38
2023-08-02T09:30:31.602Z,2.60
2023-08-02T09:33:10.071Z,2.50
2023-08-02T09:35:54.040Z,1.90
2023-08-02T09:38:20.890Z,2.03
2023-08-02T09:43:20.888Z,2.15
2023-08-02T09:45:47.952Z,2.30
2023-08-02T09:48:14.763Z,2.05
2023-08-02T09:51:04.168Z,2.50
2023-08-02T09:53:31.032Z,2.38
2023-08-02T09:56:01.865Z,2.45
2023-08-02T09:58:31.580Z,2.90
2023-08-02T10:01:01.556Z,2.83
2023-08-02T10:03:29.619Z,2.38
2023-08-02T10:06:03.266Z,3.40
2023-08-02T10:08:32.665Z,2.90
2023-08-02T10:11:00.462Z,3.20
2023-08-02T10:13:31.282Z,3.00
2023-08-02T10:15:59.032Z,2.88
2023-08-02T10:18:26.270Z,2.80
2023-08-02T10:20:54.413Z,2.70
2023-08-02T10:23:21.158Z,3.03
2023-08-02T10:25:48.634Z,3.40
2023-08-02T10:28:16.283Z,3.85
2023-08-02T10:30:43.503Z,3.00
2023-08-02T10:33:16.427Z,2.45
2023-08-02T10:35:59.486Z,1.90
2023-08-02T10:38:41.385Z,2.00
2023-08-02T10:41:14.315Z,1.60
2023-08-02T10:43:54.167Z,2.00
2023-08-02T10:46:33.425Z,2.47
2023-08-02T10:49:12.435Z,2.13
2023-08-02T10:51:39.350Z,2.72
2023-08-02T10:54:27.099Z,2.10
2023-08-02T10:56:54.570Z,1.73
2023-08-02T10:59:24.669Z,1.83
2023-08-02T11:02:02.213Z,2.00
2023-08-02T11:04:30.460Z,1.67
2023-08-02T11:07:10.959Z,2.30
2023-08-02T11:09:37.780Z,2.43
2023-08-02T11:12:11.102Z,2.20
2023-08-02T11:14:40.123Z,2.28
2023-08-02T11:19:37.814Z,2.25
2023-08-02T11:22:05.131Z,2.38
2023-08-02T11:24:44.129Z,1.90
2023-08-02T11:27:17.723Z,2.35
2023-08-02T11:30:08.477Z,1.83
2023-08-02T11:32:43.669Z,2.10
2023-08-02T11:35:15.648Z,2.08
2023-08-02T11:37:42.388Z,1.35
2023-08-02T11:40:25.061Z,1.80
2023-08-02T11:42:55.416Z,1.27
2023-08-02T11:45:36.143Z,1.40
2023-08-02T11:50:34.414Z,1.50
2023-08-02T11:53:05.770Z,1.60
2023-08-02T11:55:36.671Z,2.05
2023-08-02T11:58:07.454Z,1.60
2023-08-02T12:00:34.963Z,2.22
2023-08-02T12:03:13.184Z,1.30
2023-08-02T12:05:41.225Z,1.83
2023-08-02T12:08:13.014Z,1.67
2023-08-02T12:10:43.891Z,1.50
2023-08-02T12:13:16.856Z,1.40
2023-08-02T12:16:07.845Z,1.40
2023-08-02T12:18:56.650Z,1.55
2023-08-02T12:21:24.976Z,1.52
2023-08-02T12:23:52.971Z,1.80
2023-08-02T12:26:29.928Z,2.47
2023-08-02T12:28:56.944Z,1.75
2023-08-02T12:31:23.841Z,1.90
2023-08-02T12:33:50.815Z,1.92
2023-08-02T12:36:28.605Z,2.05
2023-08-02T12:38:58.825Z,2.30
2023-08-02T12:41:26.470Z,1.75
2023-08-02T12:43:53.272Z,2.58
2023-08-02T12:46:21.012Z,2.47
2023-08-02T12:48:49.570Z,2.65
2023-08-02T12:51:16.772Z,3.35
2023-08-02T12:53:43.803Z,2.75
2023-08-02T12:56:10.639Z,2.92
2023-08-02T12:58:37.462Z,2.88
2023-08-02T13:01:04.299Z,3.25
2023-08-02T13:03:31.373Z,2.63
2023-08-02T13:05:58.264Z,2.55
2023-08-02T13:08:26.255Z,2.88
2023-08-02T13:10:53.606Z,2.80
2023-08-02T13:13:20.398Z,2.20
2023-08-02T13:15:47.372Z,1.90
2023-08-02T13:18:14.304Z,2.25
2023-08-02T13:20:42.966Z,2.35
2023-08-02T13:23:09.753Z,1.65
2023-08-02T13:25:36.560Z,1.45
2023-08-02T13:28:03.382Z,2.08
2023-08-02T13:30:30.162Z,2.20
2023-08-02T13:32:57.039Z,2.05
2023-08-02T13:35:24.781Z,1.80
2023-08-02T13:37:51.740Z,2.10
2023-08-02T13:40:18.782Z,2.13
2023-08-02T13:42:45.574Z,2.47
2023-08-02T13:45:12.414Z,2.17
2023-08-02T13:47:39.306Z,2.10
2023-08-02T13:50:06.753Z,2.30
2023-08-02T13:52:34.801Z,3.20
2023-08-02T13:55:01.853Z,3.40
2023-08-02T13:57:28.628Z,3.47
2023-08-02T13:59:55.430Z,3.67
2023-08-02T14:02:22.306Z,4.00
2023-08-02T14:04:49.829Z,4.28
2023-08-02T14:07:16.840Z,3.50
2023-08-02T14:09:43.643Z,2.83
2023-08-02T14:12:10.877Z,3.25
2023-08-02T14:14:37.884Z,3.17
2023-08-02T14:17:04.934Z,3.30
2023-08-02T14:19:31.747Z,3.42
2023-08-02T14:21:58.523Z,3.78
2023-08-02T14:24:26.367Z,3.45
2023-08-02T14:26:53.318Z,3.65
2023-08-02T14:29:20.229Z,3.85
2023-08-02T14:31:46.983Z,3.70
2023-08-02T14:34:13.782Z,4.13
2023-08-02T14:36:40.895Z,4.15
2023-08-02T14:39:08.014Z,3.80
2023-08-02T14:41:34.825Z,3.15
2023-08-02T14:44:01.653Z,2.78
2023-08-02T14:46:28.440Z,3.67
2023-08-02T14:48:55.176Z,3.22
2023-08-02T14:51:21.896Z,3.65
2023-08-02T14:53:52.257Z,3.15
2023-08-02T14:56:21.431Z,3.67
2023-08-02T14:58:48.355Z,3.25
2023-08-02T15:01:15.218Z,2.95
2023-08-02T15:03:42.018Z,3.25
2023-08-02T15:06:08.874Z,2.60
2023-08-02T15:08:35.776Z,3.13
2023-08-02T15:11:02.958Z,3.03
2023-08-02T15:13:29.731Z,2.53
2023-08-02T15:15:56.490Z,2.67
2023-08-02T15:18:23.370Z,3.42
2023-08-02T15:20:50.501Z,3.45
2023-08-02T15:23:17.282Z,3.80
2023-08-02T15:25:44.062Z,3.60
2023-08-02T15:28:10.847Z,3.40
2023-08-02T15:30:37.628Z,3.63
2023-08-02T15:33:04.473Z,3.60
2023-08-02T15:35:32.960Z,3.47
2023-08-02T15:37:59.719Z,4.00
2023-08-02T15:40:26.492Z,3.03
2023-08-02T15:42:53.262Z,4.35
2023-08-02T15:45:20.247Z,3.70
2023-08-02T15:47:47.133Z,4.00
2023-08-02T15:50:13.911Z,3.58
2023-08-02T15:52:40.738Z,3.58
2023-08-02T15:55:07.978Z,3.38
2023-08-02T15:57:34.708Z,3.92
2023-08-02T16:00:01.520Z,3.03
2023-08-02T16:02:28.312Z,3.85
2023-08-02T16:04:55.253Z,4.32
2023-08-02T16:07:22.245Z,3.58
2023-08-02T16:09:49.066Z,4.30
2023-08-02T16:12:17.985Z,3.80
2023-08-02T16:14:46.202Z,3.53
2023-08-02T16:17:13.036Z,3.78
2023-08-02T16:19:40.591Z,3.70
2023-08-02T16:22:07.370Z,3.30
2023-08-02T16:24:34.158Z,3.17
2023-08-02T16:27:01.267Z,3.30
2023-08-02T16:29:28.116Z,3.90
2023-08-02T16:31:54.930Z,3.80
2023-08-02T16:34:21.704Z,3.40
2023-08-02T16:36:48.498Z,3.22
2023-08-02T16:39:17.247Z,3.70
2023-08-02T16:41:44.357Z,2.90
2023-08-02T16:44:11.452Z,3.17
2023-08-02T16:46:38.206Z,3.08
2023-08-02T16:49:05.376Z,2.78
2023-08-02T16:51:32.263Z,3.10
2023-08-02T16:53:59.293Z,3.20
2023-08-02T16:56:26.654Z,2.58
2023-08-02T16:58:53.428Z,2.78
2023-08-02T17:01:20.186Z,3.13
2023-08-02T17:03:48.150Z,2.58
2023-08-02T17:06:15.039Z,2.45
2023-08-02T17:08:42.386Z,2.67
2023-08-02T17:11:09.341Z,3.13
2023-08-02T17:13:37.020Z,2.63
2023-08-02T17:16:04.155Z,3.45
2023-08-02T17:18:31.042Z,2.30
2023-08-02T17:20:57.930Z,2.60
2023-08-02T17:23:24.703Z,2.42
2023-08-02T17:25:51.507Z,2.17
2023-08-02T17:28:18.371Z,1.90
2023-08-02T17:30:46.631Z,2.08
2023-08-02T17:33:13.647Z,2.20
2023-08-02T17:35:40.499Z,2.28
2023-08-02T17:38:07.274Z,2.20
2023-08-02T17:40:34.118Z,1.63
2023-08-02T17:43:00.904Z,2.35
2023-08-02T17:45:27.976Z,2.15
2023-08-02T17:47:55.249Z,2.70
2023-08-02T17:50:22.060Z,2.50
2023-08-02T17:52:49.190Z,2.13
2023-08-02T17:55:17.484Z,2.53
2023-08-02T17:57:44.435Z,2.30
2023-08-02T18:00:11.658Z,2.25
2023-08-02T18:02:38.768Z,2.25
2023-08-02T18:05:06.486Z,2.30
2023-08-02T18:07:33.290Z,2.47
2023-08-02T18:10:00.082Z,2.10
2023-08-02T18:12:26.932Z,1.70
2023-08-02T18:14:54.039Z,2.28
2023-08-02T18:17:20.984Z,1.70
2023-08-02T18:19:47.948Z,1.73
2023-08-02T18:22:14.962Z,1.95
2023-08-02T18:24:43.193Z,2.20
2023-08-02T18:27:10.188Z,2.10
2023-08-02T18:29:36.983Z,1.83
2023-08-02T18:32:04.136Z,2.10
2023-08-02T18:34:31.033Z,2.17
2023-08-02T18:36:57.802Z,2.65
2023-08-02T18:39:24.575Z,1.92
2023-08-02T18:41:51.401Z,2.17
2023-08-02T18:44:18.160Z,1.60
2023-08-02T18:46:44.898Z,2.15
2023-08-02T18:49:11.824Z,2.08
2023-08-02T18:51:38.652Z,1.95
2023-08-02T18:54:05.383Z,1.80
2023-08-02T18:56:32.169Z,1.70
2023-08-02T18:59:00.958Z,2.03
2023-08-02T19:01:28.824Z,1.90
2023-08-02T19:03:57.095Z,2.45
2023-08-02T19:06:24.043Z,2.08
2023-08-02T19:08:51.273Z,1.98
2023-08-02T19:11:23.583Z,1.77
2023-08-02T19:13:52.377Z,1.90
2023-08-02T19:16:19.358Z,1.90
2023-08-02T19:18:46.791Z,2.28
2023-08-02T19:21:15.122Z,2.20
2023-08-02T19:23:45.003Z,1.48
2023-08-02T19:26:21.846Z,1.65
2023-08-02T19:28:48.631Z,1.63
2023-08-02T19:31:15.524Z,1.67
2023-08-02T19:33:45.949Z,1.60
2023-08-02T19:36:20.711Z,1.70
2023-08-02T19:38:48.517Z,1.35
2023-08-02T19:41:27.382Z,1.50
2023-08-02T19:43:56.020Z,1.70
2023-08-02T19:46:24.550Z,1.75
2023-08-02T19:48:51.410Z,2.50
2023-08-02T19:51:18.188Z,2.00
2023-08-02T19:53:46.092Z,1.60
2023-08-02T19:56:20.704Z,1.90
2023-08-02T19:58:47.618Z,1.80
2023-08-02T20:01:14.817Z,2.40
2023-08-02T20:03:41.674Z,2.20
2023-08-02T20:06:09.282Z,1.75
2023-08-02T20:08:36.317Z,2.13
2023-08-02T20:11:05.799Z,1.77
2023-08-02T20:13:40.892Z,2.50
2023-08-02T20:16:22.005Z,2.03
2023-08-02T20:18:50.230Z,2.35
2023-08-02T20:21:22.669Z,2.58
2023-08-02T20:23:57.144Z,2.13
2023-08-02T20:26:26.180Z,2.20
2023-08-02T20:28:57.000Z,1.52
2023-08-02T20:31:25.140Z,2.30
2023-08-02T20:33:54.285Z,2.38
2023-08-02T20:36:23.131Z,2.55
2023-08-02T20:38:55.399Z,2.53
2023-08-02T20:41:27.629Z,2.83
2023-08-02T20:43:56.976Z,2.00
2023-08-02T20:46:31.066Z,3.13
2023-08-02T20:49:06.167Z,2.03
2023-08-02T20:51:36.427Z,2.40
2023-08-02T20:54:05.614Z,2.10
2023-08-02T20:56:32.545Z,2.35
2023-08-02T20:58:59.432Z,2.10
2023-08-02T21:01:29.659Z,1.70
2023-08-02T21:04:02.502Z,1.98
2023-08-02T21:06:29.409Z,1.80
2023-08-02T21:08:59.266Z,1.83
2023-08-02T21:11:26.784Z,2.00
2023-08-02T21:13:53.680Z,1.98
2023-08-02T21:16:20.496Z,1.88
2023-08-02T21:18:48.459Z,1.92
2023-08-02T21:21:19.696Z,2.00
2023-08-02T21:23:47.504Z,2.53
2023-08-02T21:26:22.635Z,2.80
2023-08-02T21:28:50.502Z,2.30
2023-08-02T21:31:18.973Z,1.95
2023-08-02T21:33:46.933Z,2.00
2023-08-02T21:36:24.691Z,1.90
2023-08-02T21:38:52.000Z,2.03
2023-08-02T21:41:18.950Z,1.83
2023-08-02T21:43:45.933Z,2.25
2023-08-02T21:46:18.222Z,2.00
2023-08-02T21:48:50.826Z,2.22
2023-08-02T21:51:19.735Z,1.70
2023-08-02T21:53:48.317Z,1.80
2023-08-02T21:56:16.066Z,1.60
2023-08-02T21:58:44.353Z,1.60
2023-08-02T22:01:16.190Z,2.03
2023-08-02T22:03:43.110Z,1.80
2023-08-02T22:06:10.061Z,2.30
2023-08-02T22:08:41.389Z,1.90
2023-08-02T22:11:14.675Z,2.08
2023-08-02T22:13:42.069Z,2.40
2023-08-02T22:16:13.712Z,2.40
2023-08-02T22:18:40.688Z,2.50
2023-08-02T22:21:07.499Z,1.85
2023-08-02T22:23:36.056Z,2.42
2023-08-02T22:26:04.809Z,1.92
2023-08-02T22:28:32.362Z,2.10
2023-08-02T22:30:59.268Z,2.20
2023-08-02T22:33:26.132Z,1.77
2023-08-02T22:35:52.960Z,1.60
2023-08-02T22:38:27.689Z,1.40
2023-08-02T22:41:00.956Z,1.48
2023-08-02T22:43:29.077Z,1.20
2023-08-02T22:45:55.969Z,1.50
2023-08-02T22:49:14.946Z,1.70
2023-08-02T22:51:09.462Z,1.83
2023-08-02T22:53:36.317Z,1.98
2023-08-02T22:56:06.160Z,2.63
2023-08-02T22:58:33.894Z,2.63
2023-08-02T23:01:05.517Z,2.72
2023-08-02T23:03:38.966Z,2.78
2023-08-02T23:06:06.247Z,2.75
2023-08-02T23:08:51.178Z,3.05
2023-08-02T23:11:20.832Z,2.90
2023-08-02T23:13:50.225Z,3.63
2023-08-02T23:16:23.942Z,3.40
2023-08-02T23:18:52.833Z,3.55
2023-08-02T23:21:19.708Z,3.97
2023-08-02T23:23:49.268Z,4.00
2023-08-02T23:26:15.998Z,3.83
2023-08-02T23:28:55.154Z,4.10
2023-08-02T23:31:25.463Z,3.55
2023-08-02T23:33:53.547Z,3.30
2023-08-02T23:36:20.919Z,3.28
2023-08-02T23:38:47.788Z,3.25
2023-08-02T23:41:14.666Z,2.85
2023-08-02T23:43:41.396Z,3.22
2023-08-02T23:46:08.858Z,2.97
2023-08-02T23:48:35.675Z,2.72
2023-08-02T23:51:02.436Z,3.10
2023-08-02T23:53:29.199Z,2.80
2023-08-02T23:55:56.026Z,2.78
2023-08-02T23:58:22.731Z,2.38
